Time;durP1;ratioP1;P1;durP2;ratioP2;P2;SDS_P1;SDS_P2;PMS_P1;PMS_P2;Temp;Humidity;BMP_temperature;BMP_pressure;BME280_temperature;BME280_humidity;BME280_pressure;Samples;Min_cycle;Max_cycle;Signal;HPM_P1;HPM_P2
2022/06/26 00:02:06;;;;;;;90.10;37.78;;;;;;;16.31;100.00;101024.09;5226265;28;20175;-70
2022/06/26 00:04:37;;;;;;;63.47;34.05;;;;;;;16.26;100.00;101022.69;5228945;28;20033;-70
2022/06/26 00:07:08;;;;;;;51.90;31.33;;;;;;;16.22;100.00;101020.44;5226650;28;20660;-70
2022/06/26 00:09:40;;;;;;;48.53;30.42;;;;;;;16.19;100.00;101012.69;5227424;28;20030;-70
2022/06/26 00:12:11;;;;;;;58.50;32.35;;;;;;;16.21;100.00;101030.38;5230590;28;20060;-70
2022/06/26 00:14:42;;;;;;;67.15;32.47;;;;;;;16.15;100.00;101030.13;5225972;28;20059;-70
2022/06/26 00:17:14;;;;;;;57.92;30.77;;;;;;;16.13;100.00;101032.09;5229273;28;20077;-70
2022/06/26 00:19:45;;;;;;;58.60;31.30;;;;;;;16.12;100.00;101033.94;5232997;28;20026;-70
2022/06/26 00:22:17;;;;;;;63.85;31.63;;;;;;;16.15;100.00;101035.50;5229936;28;20029;-70
2022/06/26 00:24:48;;;;;;;58.42;30.30;;;;;;;16.08;100.00;101040.63;5231194;28;20033;-70
2022/06/26 00:27:19;;;;;;;65.65;32.13;;;;;;;16.24;100.00;101045.38;5234551;28;20037;-70
2022/06/26 00:29:51;;;;;;;52.03;30.95;;;;;;;16.06;100.00;101035.38;5235526;28;20021;-71
2022/06/26 00:32:22;;;;;;;50.30;30.40;;;;;;;16.05;100.00;101036.41;5235371;28;20114;-70
2022/06/26 00:34:53;;;;;;;51.80;29.85;;;;;;;16.04;100.00;101050.00;5236279;28;20028;-70
2022/06/26 00:37:25;;;;;;;49.50;28.40;;;;;;;16.02;100.00;101052.84;5239527;28;20451;-71
2022/06/26 00:39:56;;;;;;;43.88;27.08;;;;;;;15.94;100.00;101051.91;5236699;28;20363;-71
2022/06/26 00:42:27;;;;;;;49.45;28.23;;;;;;;15.90;100.00;101064.78;5230897;28;20565;-71
2022/06/26 00:44:59;;;;;;;52.63;28.63;;;;;;;15.91;100.00;101065.63;5230349;28;20025;-70
2022/06/26 00:47:33;;;;;;;47.58;27.17;;;;;;;15.86;100.00;101072.31;5232912;28;20040;-71
2022/06/26 00:50:07;;;;;;;;;;;;;;;15.90;100.00;101070.19;5235936;28;20052;-71
2022/06/26 00:52:40;;;;;;;52.73;28.33;;;;;;;15.81;100.00;101077.25;5232288;28;20310;-71
2022/06/26 00:55:12;;;;;;;50.10;28.88;;;;;;;15.80;100.00;101083.66;5223165;28;21277;-70
2022/06/26 00:57:43;;;;;;;69.28;32.65;;;;;;;15.87;100.00;101084.75;5227154;28;20037;-70
2022/06/26 01:00:15;;;;;;;55.38;31.13;;;;;;;15.85;100.00;101085.91;5225672;28;20029;-70
2022/06/26 01:02:47;;;;;;;71.05;32.75;;;;;;;15.97;100.00;101081.19;5226487;28;20281;-70
2022/06/26 01:05:18;;;;;;;67.43;33.45;;;;;;;15.95;100.00;101072.41;5226559;28;20104;-70
2022/06/26 01:07:50;;;;;;;57.55;32.75;;;;;;;15.82;100.00;101084.34;5222704;28;21306;-70
2022/06/26 01:10:21;;;;;;;81.72;35.55;;;;;;;15.93;100.00;101075.25;5228193;28;20399;-71
2022/06/26 01:12:53;;;;;;;64.90;33.28;;;;;;;15.87;100.00;101083.91;5229522;28;20033;-70
2022/06/26 01:15:24;;;;;;;82.68;35.80;;;;;;;15.99;100.00;101087.25;5230397;28;20490;-71
2022/06/26 01:17:55;;;;;;;75.25;34.75;;;;;;;15.91;100.00;101095.22;5228009;28;20114;-71
2022/06/26 01:20:27;;;;;;;61.05;33.13;;;;;;;15.85;100.00;101099.34;5235863;28;20037;-71
2022/06/26 01:23:01;;;;;;;55.90;32.90;;;;;;;15.80;100.00;101105.19;5234634;28;20467;-71
2022/06/26 01:25:58;;;;;;;61.25;33.45;;;;;;;15.87;100.00;101091.97;5235824;28;20116;-70
2022/06/26 01:28:30;;;;;;;53.08;31.60;;;;;;;15.76;100.00;101093.00;5232839;28;21529;-71
2022/06/26 01:31:01;;;;;;;60.17;32.58;;;;;;;15.78;100.00;101106.31;5235283;28;20462;-71
2022/06/26 01:33:33;;;;;;;53.78;30.98;;;;;;;15.72;100.00;101109.53;5231825;28;20057;-71
2022/06/26 01:36:05;;;;;;;48.35;30.27;;;;;;;15.63;100.00;101103.19;5238426;28;20675;-71
2022/06/26 01:38:36;;;;;;;55.17;32.78;;;;;;;15.62;100.00;101096.94;5235786;28;20029;-71
2022/06/26 01:41:08;;;;;;;58.97;32.72;;;;;;;15.62;100.00;101106.88;5239378;28;20215;-70
2022/06/26 01:43:39;;;;;;;59.13;33.95;;;;;;;15.66;100.00;101105.59;5235443;28;20055;-70
2022/06/26 01:46:11;;;;;;;73.47;36.97;;;;;;;15.64;100.00;101110.25;5237115;28;20116;-71
2022/06/26 01:48:42;;;;;;;70.65;37.08;;;;;;;15.61;100.00;101103.34;5233263;28;20056;-71
2022/06/26 01:51:14;;;;;;;64.32;36.13;;;;;;;15.59;100.00;101108.03;5232994;28;20036;-70
2022/06/26 01:53:45;;;;;;;72.55;38.45;;;;;;;15.61;100.00;101097.97;5227155;28;20030;-70
2022/06/26 01:56:16;;;;;;;55.33;34.45;;;;;;;15.51;100.00;101099.78;5228263;28;20045;-71
2022/06/26 01:58:48;;;;;;;64.30;35.80;;;;;;;15.51;100.00;101090.88;5229556;28;20076;-70
2022/06/26 02:01:19;;;;;;;60.40;36.53;;;;;;;15.49;100.00;101097.28;5227761;28;20025;-71
2022/06/26 02:03:51;;;;;;;62.53;36.47;;;;;;;15.48;100.00;101092.88;5229987;28;20124;-71
2022/06/26 02:06:22;;;;;;;67.15;37.20;;;;;;;15.55;100.00;101084.22;5225593;28;20462;-71
2022/06/26 02:08:54;;;;;;;60.53;35.85;;;;;;;15.55;100.00;101085.09;5227654;28;20025;-71
2022/06/26 02:14:15;;;;;;;59.70;34.72;;;;;;;15.49;100.00;101080.28;5237098;28;20533;-71
2022/06/26 02:16:46;;;;;;;68.15;36.03;;;;;;;15.49;100.00;101069.50;5230090;28;20058;-70
2022/06/26 02:19:17;;;;;;;70.00;35.75;;;;;;;15.53;100.00;101072.75;5231211;28;20495;-71
2022/06/26 02:21:49;;;;;;;61.47;35.40;;;;;;;15.52;100.00;101074.63;5233698;28;20020;-70
2022/06/26 02:24:20;;;;;;;62.30;34.75;;;;;;;15.48;100.00;101078.59;5229106;28;20029;-70
2022/06/26 02:26:51;;;;;;;55.90;33.17;;;;;;;15.42;100.00;101074.63;5233841;28;20028;-71
2022/06/26 02:29:22;;;;;;;51.55;32.05;;;;;;;15.34;100.00;101074.50;5230795;28;20048;-71
2022/06/26 02:31:54;;;;;;;53.40;32.53;;;;;;;15.31;100.00;101084.69;5235651;28;20033;-71
2022/06/26 02:34:25;;;;;;;58.88;32.75;;;;;;;15.27;100.00;101081.44;5230561;28;20029;-70
2022/06/26 02:36:56;;;;;;;50.58;29.85;;;;;;;15.16;100.00;101095.00;5232725;28;20025;-71
2022/06/26 02:39:27;;;;;;;44.13;27.67;;;;;;;15.05;100.00;101083.44;5234111;28;20117;-70
2022/06/26 02:41:59;;;;;;;48.85;28.33;;;;;;;14.94;100.00;101091.63;5238228;28;20399;-70
2022/06/26 02:44:30;;;;;;;40.20;24.00;;;;;;;14.78;100.00;101096.66;5232062;28;20055;-71
2022/06/26 02:47:01;;;;;;;42.60;24.60;;;;;;;14.68;100.00;101096.66;5233908;28;20032;-70
2022/06/26 02:49:33;;;;;;;48.40;25.15;;;;;;;14.67;100.00;101101.19;5229984;28;20024;-71
2022/06/26 02:52:04;;;;;;;41.45;23.85;;;;;;;14.55;100.00;101107.59;5233514;28;20063;-71
2022/06/26 02:54:36;;;;;;;40.67;24.08;;;;;;;14.52;100.00;101107.91;5241473;28;20056;-71
2022/06/26 02:57:07;;;;;;;42.45;23.67;;;;;;;14.59;100.00;101103.69;5230599;28;20076;-71
2022/06/26 02:59:39;;;;;;;48.25;24.80;;;;;;;14.60;100.00;101107.25;5226438;28;20036;-71
2022/06/26 03:02:10;;;;;;;42.42;24.77;;;;;;;14.40;100.00;101111.66;5227636;28;20025;-71
2022/06/26 03:04:42;;;;;;;45.13;25.17;;;;;;;14.41;100.00;101122.25;5229583;28;20052;-70
2022/06/26 03:07:13;;;;;;;46.72;24.95;;;;;;;14.50;100.00;101121.44;5230773;28;20032;-71
2022/06/26 03:09:45;;;;;;;50.47;26.88;;;;;;;14.44;100.00;101121.13;5228149;28;20225;-71
2022/06/26 03:12:16;;;;;;;43.03;25.92;;;;;;;14.30;100.00;101116.97;5230684;28;20039;-71
2022/06/26 03:14:47;;;;;;;43.13;25.10;;;;;;;14.26;100.00;101126.28;5223533;28;20549;-71
2022/06/26 03:17:19;;;;;;;45.03;24.65;;;;;;;14.30;100.00;101133.09;5230835;28;20021;-71
2022/06/26 03:19:50;;;;;;;44.63;24.33;;;;;;;14.23;100.00;101130.09;5236728;28;20028;-71
2022/06/26 03:22:22;;;;;;;45.10;24.90;;;;;;;14.19;100.00;101141.22;5232143;28;20505;-71
2022/06/26 03:24:53;;;;;;;43.78;23.88;;;;;;;14.21;100.00;101153.53;5228749;28;20029;-71
2022/06/26 03:27:24;;;;;;;44.70;24.92;;;;;;;14.14;100.00;101148.84;5236725;28;20602;-71
2022/06/26 03:29:56;;;;;;;40.47;22.80;;;;;;;14.09;100.00;101146.53;5230574;28;20062;-71
2022/06/26 03:32:27;;;;;;;43.50;23.73;;;;;;;14.08;100.00;101144.84;5234908;28;21429;-71
2022/06/26 03:34:58;;;;;;;40.78;22.80;;;;;;;14.07;100.00;101145.81;5228253;28;20037;-71
2022/06/26 03:37:30;;;;;;;42.67;23.60;;;;;;;14.04;100.00;101163.06;5232961;28;20590;-71
2022/06/26 03:40:01;;;;;;;35.95;21.45;;;;;;;14.02;100.00;101164.19;5236538;28;20037;-71
2022/06/26 03:42:32;;;;;;;40.03;21.90;;;;;;;14.03;100.00;101160.50;5235790;28;20033;-70
2022/06/26 03:45:04;;;;;;;39.22;22.08;;;;;;;14.02;100.00;101182.97;5240937;28;20029;-70
2022/06/26 03:47:36;;;;;;;51.05;22.77;;;;;;;14.03;100.00;101180.13;5232626;28;20037;-70
2022/06/26 03:50:09;;;;;;;41.03;21.27;;;;;;;13.90;100.00;101174.09;5235287;28;20024;-70
2022/06/26 03:52:40;;;;;;;40.83;20.92;;;;;;;13.95;100.00;101176.41;5232790;28;20107;-70
2022/06/26 03:55:12;;;;;;;40.78;20.60;;;;;;;13.86;100.00;101178.88;5235731;28;20048;-70
2022/06/26 03:57:43;;;;;;;40.05;20.35;;;;;;;13.90;100.00;101174.97;5233518;28;20051;-70
2022/06/26 04:00:14;;;;;;;34.00;19.33;;;;;;;13.85;100.00;101179.03;5223762;28;21549;-71
2022/06/26 04:02:46;;;;;;;35.65;18.83;;;;;;;13.78;100.00;101169.78;5224948;28;20265;-70
2022/06/26 04:05:17;;;;;;;34.67;19.17;;;;;;;13.86;100.00;101165.47;5224972;28;20025;-70
2022/06/26 04:07:48;;;;;;;37.60;19.38;;;;;;;13.88;100.00;101154.59;5223596;28;20029;-70
2022/06/26 04:10:20;;;;;;;36.72;18.42;;;;;;;13.72;100.00;101163.13;5226499;28;20033;-70
2022/06/26 04:12:51;;;;;;;38.65;17.48;;;;;;;13.73;100.00;101164.84;5226010;28;20032;-70
2022/06/26 04:15:22;;;;;;;33.03;17.40;;;;;;;13.93;100.00;101166.66;5224323;28;20029;-70
2022/06/26 04:17:54;;;;;;;31.45;17.75;;;;;;;13.77;100.00;101168.94;5226525;28;20872;-70
2022/06/26 04:20:25;;;;;;;33.80;17.50;;;;;;;13.78;100.00;101167.97;5229392;28;20391;-71
2022/06/26 04:23:09;;;;;;;36.75;18.08;;;;;;;13.95;100.00;101179.94;5231879;28;20056;-70
2022/06/26 04:25:41;;;;;;;36.47;18.27;;;;;;;13.82;100.00;101180.13;5232105;28;20043;-70
2022/06/26 04:28:12;;;;;;;34.05;18.35;;;;;;;13.80;100.00;101186.59;5230720;28;20036;-70
2022/06/26 04:30:43;;;;;;;35.67;18.00;;;;;;;13.86;100.00;101192.28;5231557;28;20029;-71
2022/06/26 04:33:14;;;;;;;33.20;17.60;;;;;;;13.90;100.00;101198.25;5233971;28;20032;-71
2022/06/26 04:35:46;;;;;;;40.45;19.08;;;;;;;13.85;100.00;101209.38;5228331;28;20029;-71
2022/06/26 04:38:17;;;;;;;37.60;17.85;;;;;;;13.84;100.00;101204.13;5235301;28;20060;-71
2022/06/26 04:40:48;;;;;;;41.75;18.13;;;;;;;13.94;100.00;101215.81;5226730;28;20514;-71
2022/06/26 04:43:20;;;;;;;38.63;19.17;;;;;;;13.97;100.00;101217.38;5237593;28;20039;-71
2022/06/26 04:45:51;;;;;;;41.70;19.63;;;;;;;13.93;100.00;101222.97;5226009;28;20094;-70
2022/06/26 04:48:22;;;;;;;38.08;18.55;;;;;;;13.97;100.00;101230.78;5226637;28;20033;-71
2022/06/26 04:50:53;;;;;;;44.05;20.48;;;;;;;14.16;100.00;101238.97;5228819;28;20032;-71
2022/06/26 04:53:25;;;;;;;45.72;21.20;;;;;;;14.28;100.00;101237.91;5231660;28;20086;-71
2022/06/26 04:55:56;;;;;;;37.53;19.52;;;;;;;14.26;100.00;101239.03;5227804;28;20061;-71
2022/06/26 04:58:27;;;;;;;41.47;19.58;;;;;;;14.45;100.00;101231.06;5237626;28;20302;-70
2022/06/26 05:00:58;;;;;;;37.50;18.85;;;;;;;14.34;100.00;101222.25;5235507;28;20744;-71
2022/06/26 05:03:30;;;;;;;40.63;20.05;;;;;;;14.46;100.00;101231.94;5236063;28;20053;-70
2022/06/26 05:06:02;;;;;;;42.65;19.40;;;;;;;14.56;100.00;101232.00;5232910;28;20030;-71
2022/06/26 05:08:33;;;;;;;40.85;20.10;;;;;;;14.69;100.00;101238.88;5228890;28;20037;-71
2022/06/26 05:11:05;;;;;;;42.17;20.08;;;;;;;14.61;100.00;101230.63;5233534;28;20071;-71
2022/06/26 05:13:37;;;;;;;39.85;18.50;;;;;;;14.57;100.00;101239.09;5229843;28;20040;-70
2022/06/26 05:16:08;;;;;;;41.30;17.95;;;;;;;14.53;100.00;101241.16;5228348;28;20996;-70
2022/06/26 05:18:40;;;;;;;39.22;17.40;;;;;;;14.49;100.00;101243.25;5228388;28;20548;-71
2022/06/26 05:21:13;;;;;;;31.45;16.63;;;;;;;14.45;100.00;101232.91;5234398;28;20047;-71
2022/06/26 05:23:44;;;;;;;38.88;17.85;;;;;;;14.43;100.00;101235.72;5235129;28;20044;-71
2022/06/26 05:26:15;;;;;;;36.40;17.15;;;;;;;14.45;100.00;101249.03;5247018;28;20066;-71
2022/06/26 05:28:47;;;;;;;34.70;17.23;;;;;;;14.43;100.00;101240.25;5232057;28;20037;-71
2022/06/26 05:31:18;;;;;;;34.70;17.00;;;;;;;14.44;100.00;101236.56;5232767;28;20072;-71
2022/06/26 05:33:49;;;;;;;34.80;16.40;;;;;;;14.39;100.00;101242.34;5234027;28;20080;-70
2022/06/26 05:36:20;;;;;;;33.03;15.85;;;;;;;14.44;100.00;101236.56;5233932;28;20037;-70
2022/06/26 05:38:52;;;;;;;35.80;15.73;;;;;;;14.43;100.00;101235.72;5234217;28;21654;-71
2022/06/26 05:41:23;;;;;;;32.65;15.50;;;;;;;14.49;100.00;101245.94;5240468;28;20103;-70
2022/06/26 05:43:54;;;;;;;31.75;15.43;;;;;;;14.45;100.00;101247.19;5233235;28;20039;-70
2022/06/26 05:46:26;;;;;;;35.10;16.48;;;;;;;14.47;100.00;101257.78;5232630;28;20036;-70
2022/06/26 05:48:57;;;;;;;36.97;16.17;;;;;;;14.43;100.00;101264.41;5233160;28;20037;-70
2022/06/26 05:51:29;;;;;;;34.85;15.65;;;;;;;14.47;100.00;101264.00;5233574;28;20550;-70
2022/06/26 05:54:00;;;;;;;31.58;15.02;;;;;;;14.48;100.00;101273.78;5232034;28;20406;-71
2022/06/26 05:56:31;;;;;;;30.88;14.52;;;;;;;14.50;100.00;101281.72;5230687;28;20026;-70
2022/06/26 05:59:03;;;;;;;33.40;14.20;;;;;;;14.72;100.00;101279.88;5227812;28;20071;-71
2022/06/26 06:01:34;;;;;;;31.90;14.15;;;;;;;14.61;100.00;101281.66;5234408;28;20421;-70
2022/06/26 06:04:06;;;;;;;33.38;15.23;;;;;;;14.90;100.00;101280.97;5234617;28;20878;-71
2022/06/26 06:06:37;;;;;;;27.23;14.52;;;;;;;14.86;100.00;101283.06;5235560;28;20025;-70
2022/06/26 06:09:09;;;;;;;30.77;14.05;;;;;;;14.97;100.00;101294.69;5237132;28;20056;-70
2022/06/26 06:11:40;;;;;;;28.50;13.60;;;;;;;15.05;100.00;101289.47;5232665;28;20021;-71
2022/06/26 06:14:11;;;;;;;28.58;14.45;;;;;;;14.99;100.00;101282.81;5236349;28;20041;-70
2022/06/26 06:16:43;;;;;;;23.13;12.23;;;;;;;14.94;100.00;101287.75;5235041;28;20066;-70
2022/06/26 06:19:14;;;;;;;27.38;13.38;;;;;;;15.24;100.00;101289.53;5238910;28;20115;-70
2022/06/26 06:21:45;;;;;;;22.63;11.90;;;;;;;15.27;100.00;101275.00;5235602;28;20040;-70
2022/06/26 06:24:17;;;;;;;24.50;13.27;;;;;;;15.48;100.00;101274.91;5230831;28;20036;-70
2022/06/26 06:26:48;;;;;;;23.25;12.32;;;;;;;15.55;100.00;101276.06;5237534;28;21571;-70
2022/06/26 06:29:19;;;;;;;21.80;11.82;;;;;;;15.61;100.00;101275.50;5236918;28;20043;-70
2022/06/26 06:31:50;;;;;;;21.52;12.32;;;;;;;15.72;100.00;101296.00;5239171;28;20132;-70
2022/06/26 06:34:22;;;;;;;18.52;11.07;;;;;;;15.75;100.00;101298.47;5232740;28;20029;-70
2022/06/26 06:36:53;;;;;;;17.38;9.85;;;;;;;15.78;100.00;101310.78;5235032;28;20017;-70
2022/06/26 06:39:24;;;;;;;18.92;10.32;;;;;;;15.83;100.00;101308.53;5232158;28;20970;-70
2022/06/26 06:41:56;;;;;;;16.67;9.40;;;;;;;15.88;100.00;101303.59;5235142;28;20024;-70
2022/06/26 06:44:27;;;;;;;17.05;9.57;;;;;;;15.89;100.00;101310.66;5234012;28;20063;-70
2022/06/26 06:46:59;;;;;;;17.58;9.93;;;;;;;15.98;100.00;101323.25;5231875;28;20028;-70
2022/06/26 06:49:31;;;;;;;17.73;9.98;;;;;;;16.13;100.00;101334.47;5235039;28;20078;-70
2022/06/26 06:52:02;;;;;;;16.98;8.88;;;;;;;16.01;100.00;101340.97;5237235;28;20190;-70
2022/06/26 06:54:34;;;;;;;17.90;10.75;;;;;;;16.13;100.00;101341.66;5232464;28;20779;-70
2022/06/26 06:57:05;;;;;;;15.63;9.13;;;;;;;16.21;100.00;101358.84;5231028;28;20484;-70
2022/06/26 06:59:37;;;;;;;16.13;9.60;;;;;;;16.27;100.00;101363.66;5227376;28;20671;-69
2022/06/26 07:02:08;;;;;;;16.55;9.23;;;;;;;16.39;100.00;101364.34;5238416;28;20063;-70
2022/06/26 07:04:39;;;;;;;14.60;9.23;;;;;;;16.49;100.00;101377.81;5237256;28;20556;-70
2022/06/26 07:07:11;;;;;;;13.55;9.13;;;;;;;16.62;100.00;101372.97;5230846;28;20018;-70
2022/06/26 07:09:42;;;;;;;14.10;8.88;;;;;;;16.90;100.00;101380.34;5229303;28;20408;-70
2022/06/26 07:12:13;;;;;;;15.00;8.50;;;;;;;16.88;100.00;101387.72;5231522;28;20047;-70
2022/06/26 07:14:44;;;;;;;13.80;8.75;;;;;;;16.88;100.00;101396.66;5223121;28;20043;-70
2022/06/26 07:17:16;;;;;;;13.85;8.10;;;;;;;17.18;100.00;101382.09;5226951;28;20060;-70
2022/06/26 07:19:48;;;;;;;12.63;9.07;;;;;;;17.13;100.00;101384.38;5228873;28;20039;-70
2022/06/26 07:22:19;;;;;;;11.95;8.60;;;;;;;17.14;100.00;101386.06;5242236;28;20031;-70
2022/06/26 07:24:50;;;;;;;11.43;7.35;;;;;;;17.15;100.00;101382.38;5227101;28;20490;-70
2022/06/26 07:27:22;;;;;;;9.43;7.07;;;;;;;17.24;100.00;101373.41;5229262;28;20025;-70
2022/06/26 07:29:53;;;;;;;9.88;7.45;;;;;;;17.34;100.00;101391.41;5227220;28;20735;-71
2022/06/26 07:32:25;;;;;;;9.70;7.03;;;;;;;17.49;100.00;101394.44;5233131;28;20021;-70
2022/06/26 07:34:56;;;;;;;12.15;6.70;;;;;;;17.30;100.00;101396.25;5234184;28;20038;-70
2022/06/26 07:37:27;;;;;;;8.98;7.28;;;;;;;17.47;100.00;101402.72;5235681;28;20115;-70
2022/06/26 07:39:59;;;;;;;9.25;7.30;;;;;;;17.43;100.00;101388.69;5234562;28;20722;-70
2022/06/26 07:42:30;;;;;;;7.78;6.10;;;;;;;17.30;100.00;101406.19;5238021;28;20020;-70
2022/06/26 07:45:02;;;;;;;12.70;7.07;;;;;;;17.18;100.00;101397.41;5236213;28;20369;-70
2022/06/26 07:47:33;;;;;;;10.80;7.47;;;;;;;17.33;100.00;101401.34;5232613;28;20017;-71
2022/06/26 07:50:05;;;;;;;9.63;6.78;;;;;;;17.23;100.00;101397.84;5236478;28;20036;-70
2022/06/26 07:52:36;;;;;;;9.82;6.28;;;;;;;17.13;100.00;101399.72;5246579;28;20395;-70
2022/06/26 07:55:08;;;;;;;11.25;6.95;;;;;;;17.28;100.00;101398.25;5230097;28;20413;-70
2022/06/26 07:57:39;;;;;;;8.60;6.90;;;;;;;17.20;100.00;101401.69;5232511;28;20535;-70
2022/06/26 08:00:11;;;;;;;10.55;6.68;;;;;;;17.27;100.00;101401.09;5229524;28;20082;-70
2022/06/26 08:02:42;;;;;;;9.38;7.10;;;;;;;17.29;100.00;101410.72;5228490;28;20555;-70
2022/06/26 08:05:13;;;;;;;8.45;6.75;;;;;;;17.31;100.00;101411.41;5235389;28;20681;-70
2022/06/26 08:07:45;;;;;;;8.40;6.57;;;;;;;17.35;100.00;101417.38;5229798;28;20473;-70
2022/06/26 08:10:16;;;;;;;8.95;6.00;;;;;;;17.29;100.00;101416.13;5234995;28;20064;-70
2022/06/26 08:12:47;;;;;;;7.47;5.70;;;;;;;17.44;100.00;101427.28;5237357;28;20046;-71
2022/06/26 08:15:19;;;;;;;10.20;6.40;;;;;;;17.47;100.00;101431.53;5250994;28;20055;-70
2022/06/26 08:17:50;;;;;;;9.63;6.57;;;;;;;17.43;100.00;101421.03;5242998;28;20399;-70
2022/06/26 08:20:21;;;;;;;10.05;6.80;;;;;;;17.38;100.00;101420.63;5235287;28;20622;-70
2022/06/26 08:22:53;;;;;;;10.95;6.55;;;;;;;17.50;100.00;101420.44;5232381;28;20025;-70
2022/06/26 08:25:25;;;;;;;7.50;5.78;;;;;;;17.42;100.00;101426.59;5232527;28;20395;-70
2022/06/26 08:27:56;;;;;;;9.23;6.57;;;;;;;17.40;100.00;101437.53;5233075;28;20025;-70
2022/06/26 08:30:27;;;;;;;8.75;5.85;;;;;;;17.21;100.00;101424.09;5238257;28;20025;-70
2022/06/26 08:32:59;;;;;;;10.38;6.47;;;;;;;17.40;100.00;101417.78;5244419;28;20036;-70
2022/06/26 08:35:30;;;;;;;9.68;6.10;;;;;;;17.37;100.00;101418.94;5237411;28;20396;-71
2022/06/26 08:38:02;;;;;;;7.18;5.88;;;;;;;17.49;100.00;101407.94;5241796;28;20116;-70
2022/06/26 08:40:34;;;;;;;9.32;5.63;;;;;;;17.47;100.00;101413.50;5241464;28;20392;-70
2022/06/26 08:43:05;;;;;;;8.35;5.53;;;;;;;17.57;100.00;101414.31;5235880;28;20219;-70
2022/06/26 08:45:37;;;;;;;6.70;5.68;;;;;;;17.51;100.00;101425.69;5237863;28;20028;-70
2022/06/26 08:48:12;;;;;;;8.05;5.13;;;;;;;17.58;100.00;101436.72;5241950;28;20156;-70
2022/06/26 08:50:44;;;;;;;10.70;5.88;;;;;;;17.68;100.00;101431.28;5244934;28;20037;-70
2022/06/26 08:53:16;;;;;;;6.93;4.90;;;;;;;17.64;100.00;101428.91;5239413;28;20628;-70
2022/06/26 08:55:48;;;;;;;6.03;4.45;;;;;;;17.77;100.00;101442.03;5242890;28;20103;-70
2022/06/26 08:58:19;;;;;;;7.80;4.72;;;;;;;17.76;100.00;101434.94;5241535;28;20116;-70
2022/06/26 09:00:51;;;;;;;7.45;4.97;;;;;;;17.81;100.00;101432.66;5241418;28;20410;-70
2022/06/26 09:03:22;;;;;;;7.78;5.40;;;;;;;17.68;100.00;101425.88;5250926;28;20086;-70
2022/06/26 09:05:53;;;;;;;8.70;5.60;;;;;;;17.68;100.00;101437.56;5243989;28;20052;-71
2022/06/26 09:08:26;;;;;;;8.48;5.00;;;;;;;17.65;100.00;101435.16;5252197;28;20060;-71
2022/06/26 09:10:58;;;;;;;7.78;4.63;;;;;;;17.63;100.00;101439.84;5244599;28;20035;-71
2022/06/26 09:13:38;;;;;;;6.38;4.75;;;;;;;17.53;100.00;101430.94;5237536;28;20112;-71
2022/06/26 09:16:10;;;;;;;9.43;4.55;;;;;;;17.67;100.00;101435.84;5240027;28;20052;-70
2022/06/26 09:18:42;;;;;;;6.50;4.82;;;;;;;17.60;100.00;101429.34;5242245;28;20156;-70
2022/06/26 09:21:14;;;;;;;6.13;4.43;;;;;;;17.69;100.00;101423.06;5244025;28;20017;-70
2022/06/26 09:23:55;;;;;;;8.10;4.80;;;;;;;17.82;100.00;101425.41;5243559;28;20085;-70
2022/06/26 09:26:27;;;;;;;8.02;5.30;;;;;;;17.89;100.00;101437.34;5242020;28;20513;-70
2022/06/26 09:29:11;;;;;;;5.78;3.80;;;;;;;17.97;100.00;101442.81;5242824;28;20032;-70
2022/06/26 09:31:42;;;;;;;8.35;4.20;;;;;;;17.91;100.00;101446.13;5239519;28;20029;-70
2022/06/26 09:34:26;;;;;;;7.82;4.30;;;;;;;17.91;100.00;101447.97;5237149;28;20029;-70
2022/06/26 09:36:59;;;;;;;5.57;4.18;;;;;;;17.96;100.00;101446.50;5229090;28;20020;-70
2022/06/26 09:39:32;;;;;;;6.60;4.32;;;;;;;18.06;100.00;101426.72;5233663;28;20131;-70
2022/06/26 09:42:21;;;;;;;6.30;4.00;;;;;;;18.17;100.00;101432.75;5239788;28;20029;-70
2022/06/26 09:44:54;;;;;;;6.68;3.78;;;;;;;18.05;100.00;101446.63;5239982;28;20236;-70
2022/06/26 09:47:28;;;;;;;8.00;4.40;;;;;;;18.06;100.00;101451.00;5239166;28;20053;-70
2022/06/26 09:50:00;;;;;;;9.35;4.47;;;;;;;17.98;100.00;101449.06;5244988;28;20427;-70
2022/06/26 09:52:32;;;;;;;8.27;4.15;;;;;;;18.13;100.00;101439.44;5243352;28;20029;-70
2022/06/26 09:55:05;;;;;;;6.30;3.78;;;;;;;18.12;100.00;101445.88;5238329;28;20483;-71
2022/06/26 09:57:37;;;;;;;5.35;3.25;;;;;;;18.32;100.00;101456.53;5240943;28;20121;-70
2022/06/26 10:00:10;;;;;;;7.47;3.45;;;;;;;18.43;100.00;101453.63;5256891;28;20352;-71
2022/06/26 10:08:24;;;;;;;5.60;3.17;;;;;;;18.78;100.00;101457.28;5246244;28;20032;-70
2022/06/26 10:10:58;;;;;;;8.55;3.88;;;;;;;18.90;100.00;101461.47;5239543;28;20044;-70
2022/06/26 10:13:34;;;;;;;8.13;3.05;;;;;;;18.90;100.00;101461.47;5241006;28;20513;-70
2022/06/26 10:16:42;;;;;;;7.35;2.60;;;;;;;18.94;100.00;101462.84;5234200;28;20029;-70
2022/06/26 10:19:27;;;;;;;4.70;3.10;;;;;;;18.99;100.00;101476.75;5240459;28;20067;-70
2022/06/26 10:21:58;;;;;;;;;;;;;;;19.05;100.00;101474.44;5239999;28;20115;-71
2022/06/26 10:24:29;;;;;;;6.47;3.22;;;;;;;19.05;100.00;101474.44;5246429;28;19918;-71
2022/06/26 10:27:04;;;;;;;6.75;2.67;;;;;;;19.07;100.00;101467.03;5245692;28;20377;-71
2022/06/26 10:29:40;;;;;;;5.82;3.65;;;;;;;19.35;100.00;101468.56;5238009;28;20143;-70
2022/06/26 10:32:22;;;;;;;8.32;3.28;;;;;;;19.45;100.00;101473.03;5243521;28;20542;-70
2022/06/26 10:34:55;;;;;;;6.25;3.92;;;;;;;19.47;100.00;101469.13;5240964;28;20350;-70
2022/06/26 10:37:26;;;;;;;8.80;3.78;;;;;;;19.65;100.00;101471.75;5241738;28;20063;-71
2022/06/26 10:39:58;;;;;;;8.20;4.45;;;;;;;19.64;100.00;101471.94;5237971;28;20406;-71
2022/06/26 10:45:23;;;;;;;7.32;3.47;;;;;;;19.83;100.00;101469.00;5240179;28;20085;-70
2022/06/26 10:48:01;;;;;;;7.35;4.43;;;;;;;20.03;100.00;101475.00;5247062;28;20032;-70
2022/06/26 10:50:34;;;;;;;7.15;3.92;;;;;;;20.20;100.00;101469.66;5256511;28;20024;-70
2022/06/26 10:53:22;;;;;;;7.88;3.22;;;;;;;20.24;100.00;101469.13;5250929;28;20486;-70
2022/06/26 10:55:59;;;;;;;5.93;2.90;;;;;;;20.29;100.00;101474.06;5246517;28;20135;-70
2022/06/26 10:58:38;;;;;;;7.03;3.03;;;;;;;20.40;100.00;101476.44;5247879;28;20044;-71
2022/06/26 11:01:11;;;;;;;6.03;2.80;;;;;;;20.54;100.00;101480.38;5245582;28;20562;-72
2022/06/26 11:03:44;;;;;;;6.55;3.20;;;;;;;20.64;100.00;101478.38;5242167;28;20172;-71
2022/06/26 11:06:16;;;;;;;6.43;2.60;;;;;;;20.54;100.00;101478.50;5241261;28;20498;-71
2022/06/26 11:08:49;;;;;;;5.53;2.58;;;;;;;20.67;96.09;101474.47;5233530;28;20094;-71
2022/06/26 11:11:27;;;;;;;5.50;2.20;;;;;;;20.70;99.38;101477.69;5243985;28;20096;-71
2022/06/26 11:14:06;;;;;;;5.32;2.33;;;;;;;20.68;100.00;101465.34;5235412;28;20026;-71
2022/06/26 11:16:42;;;;;;;6.32;2.17;;;;;;;20.73;100.00;101457.56;5249242;28;20033;-72
2022/06/26 11:19:24;;;;;;;7.07;2.47;;;;;;;20.75;100.00;101469.91;5236243;28;20033;-71
2022/06/26 11:22:07;;;;;;;6.40;2.60;;;;;;;20.79;100.00;101451.44;5240557;28;20668;-71
2022/06/26 11:24:49;;;;;;;6.70;2.67;;;;;;;20.90;98.76;101444.81;5236836;28;20119;-71
2022/06/26 11:27:25;;;;;;;5.32;2.40;;;;;;;20.73;99.57;101450.25;5235447;28;20021;-72
2022/06/26 11:29:57;;;;;;;7.20;2.53;;;;;;;20.79;96.84;101446.03;5241045;28;20410;-71
2022/06/26 11:32:28;;;;;;;5.80;2.40;;;;;;;20.83;93.88;101439.22;5239107;28;20079;-71
2022/06/26 11:35:00;;;;;;;7.20;2.05;;;;;;;20.65;91.48;101444.84;5244240;28;20510;-71
2022/06/26 11:37:36;;;;;;;5.22;2.20;;;;;;;20.60;89.00;101443.66;5239003;28;20025;-71
2022/06/26 11:40:15;;;;;;;8.05;2.50;;;;;;;20.33;94.82;101443.75;5236148;28;20977;-71
2022/06/26 11:42:53;;;;;;;7.93;2.72;;;;;;;20.24;96.11;101452.03;5240043;28;20055;-71